Time;durP1;ratioP1;P1;durP2;ratioP2;P2;SDS_P1;SDS_P2;PMS_P1;PMS_P2;Temp;Humidity;BMP_temperature;BMP_pressure;BME280_temperature;BME280_humidity;BME280_pressure;Samples;Min_cycle;Max_cycle;Signal;HPM_P1;HPM_P2
2022/09/10 00:01:45;;;;;;;15.43;7.10;;;;;;;4.11;65.85;101233.59;4756024;30;20066;-78
2022/09/10 00:04:13;;;;;;;15.35;7.03;;;;;;;4.11;65.92;101232.75;4745753;29;20074;-76
2022/09/10 00:06:40;;;;;;;15.18;6.93;;;;;;;4.13;66.35;101226.81;4741885;30;20133;-78
2022/09/10 00:09:07;;;;;;;16.15;6.70;;;;;;;4.06;65.87;101224.84;4757105;30;20146;-74
2022/09/10 00:11:34;;;;;;;18.15;7.38;;;;;;;4.06;65.77;101228.28;4777243;29;20078;-77
2022/09/10 00:14:03;;;;;;;15.65;7.13;;;;;;;4.10;65.75;101241.28;4722156;30;20043;-76
2022/09/10 00:16:30;;;;;;;15.35;7.35;;;;;;;4.03;65.83;101242.75;4760031;29;20117;-77
2022/09/10 00:18:59;;;;;;;11.98;7.05;;;;;;;4.02;66.08;101238.41;4773632;29;20071;-79
2022/09/10 00:21:26;;;;;;;13.55;7.00;;;;;;;3.99;66.26;101239.13;4757072;30;20106;-77
2022/09/10 00:23:53;;;;;;;17.08;7.47;;;;;;;4.06;65.84;101250.59;4761699;30;20096;-77
2022/09/10 00:26:38;;;;;;;22.55;7.68;;;;;;;3.96;65.77;101244.19;4771867;30;20055;-76
2022/09/10 00:29:07;;;;;;;18.60;7.15;;;;;;;4.02;65.43;101246.13;4757152;29;20695;-77
2022/09/10 00:31:34;;;;;;;17.17;7.90;;;;;;;3.97;65.31;101247.63;4773201;29;20043;-77
2022/09/10 00:34:00;;;;;;;18.38;8.52;;;;;;;3.98;66.21;101251.97;4776029;29;20628;-77
2022/09/10 00:36:31;;;;;;;22.77;8.25;;;;;;;3.89;65.29;101235.31;4772476;29;20577;-77
2022/09/10 00:39:01;;;;;;;20.05;8.80;;;;;;;3.94;65.70;101244.94;4757199;30;20055;-77
2022/09/10 00:41:27;;;;;;;18.48;8.38;;;;;;;3.92;65.98;101243.16;4756187;30;20046;-76
2022/09/10 00:43:58;;;;;;;17.17;8.25;;;;;;;3.91;65.15;101245.69;4772440;29;20130;-74
2022/09/10 00:46:30;;;;;;;13.93;7.70;;;;;;;3.90;65.86;101249.09;4756133;30;20508;-74
2022/09/10 00:48:58;;;;;;;18.02;8.32;;;;;;;3.89;65.67;101247.31;4755796;30;20160;-77
2022/09/10 00:51:28;;;;;;;15.27;8.30;;;;;;;3.84;65.70;101249.72;4741534;30;20048;-77
2022/09/10 00:53:54;;;;;;;17.85;8.10;;;;;;;3.85;65.85;101255.72;4771557;29;22250;-76
2022/09/10 00:56:20;;;;;;;22.80;9.27;;;;;;;3.75;65.43;101246.75;4756348;30;20235;-78
2022/09/10 00:58:48;;;;;;;17.70;8.25;;;;;;;3.82;66.08;101255.59;4771682;30;20039;-75
2022/09/10 01:01:15;;;;;;;23.98;8.90;;;;;;;3.80;66.09;101254.66;4770025;29;20078;-74
2022/09/10 01:03:43;;;;;;;30.13;8.60;;;;;;;3.76;66.17;101251.94;4771666;29;20059;-74
2022/09/10 01:06:10;;;;;;;25.88;8.73;;;;;;;3.77;65.88;101258.00;4755501;29;20156;-80
2022/09/10 01:08:35;;;;;;;19.45;8.88;;;;;;;3.73;65.92;101250.94;4773924;29;20075;-77
2022/09/10 01:11:31;;;;;;;19.60;9.10;;;;;;;3.65;66.01;101242.00;4745302;30;20071;-75
2022/09/10 01:14:34;;;;;;;17.55;9.13;;;;;;;3.72;65.69;101252.66;4746811;29;20036;-76
2022/09/10 01:17:19;;;;;;;21.25;9.15;;;;;;;3.69;65.84;101259.34;4759787;30;20573;-77
2022/09/10 01:20:00;;;;;;;18.38;9.68;;;;;;;3.56;65.62;101253.69;4761522;30;20051;-74
2022/09/10 01:22:32;;;;;;;15.02;9.02;;;;;;;3.54;66.67;101260.47;4759650;29;20054;-75
2022/09/10 01:25:33;;;;;;;20.50;9.65;;;;;;;3.54;67.11;101250.16;4758858;30;20042;-75
2022/09/10 01:28:07;;;;;;;17.52;9.10;;;;;;;3.54;66.94;101257.88;4773641;29;20103;-77
2022/09/10 01:30:48;;;;;;;19.58;9.88;;;;;;;3.56;66.45;101266.56;4774357;29;20092;-74
2022/09/10 01:33:23;;;;;;;22.33;10.27;;;;;;;3.49;66.89;101250.78;4775760;29;20124;-75
2022/09/10 01:35:57;;;;;;;21.60;9.05;;;;;;;3.51;66.68;101255.16;4759118;30;20078;-76
2022/09/10 01:38:34;;;;;;;20.00;9.35;;;;;;;3.41;66.89;101242.72;4776321;29;20062;-76
2022/09/10 01:41:01;;;;;;;19.27;9.55;;;;;;;3.46;66.87;101262.69;4774328;29;20082;-78
2022/09/10 01:43:33;;;;;;;;;;;;;;;3.48;66.83;101267.91;4759755;30;20104;-76
2022/09/10 01:46:23;;;;;;;17.77;9.45;;;;;;;3.44;67.28;101264.31;4789641;29;19984;-76
2022/09/10 01:49:25;;;;;;;20.92;9.93;;;;;;;3.47;67.29;101271.28;4760494;30;21262;-77
2022/09/10 01:52:11;;;;;;;20.48;9.50;;;;;;;3.44;66.88;101264.31;4762247;29;20104;-76
2022/09/10 01:55:06;;;;;;;23.40;10.43;;;;;;;3.45;66.64;101266.09;4746314;29;20044;-77
2022/09/10 01:58:15;;;;;;;23.38;10.20;;;;;;;3.50;67.15;101257.69;4757802;30;20051;-78
2022/09/10 02:01:10;;;;;;;30.15;10.13;;;;;;;3.54;67.19;101265.59;4764196;29;20520;-77
2022/09/10 02:03:39;;;;;;;22.00;10.57;;;;;;;3.48;66.56;101262.75;4740231;29;20170;-76
2022/09/10 02:06:08;;;;;;;20.02;11.02;;;;;;;3.51;67.03;101259.44;4735682;29;20043;-78
2022/09/10 02:08:39;;;;;;;19.85;9.85;;;;;;;3.52;67.24;101259.50;4759200;29;20059;-77
2022/09/10 02:11:10;;;;;;;18.67;10.45;;;;;;;3.53;66.87;101269.00;4759455;30;20044;-78
2022/09/10 02:13:44;;;;;;;21.35;10.57;;;;;;;3.49;67.00;101259.38;4758876;30;20576;-75
2022/09/10 02:16:29;;;;;;;21.70;10.43;;;;;;;3.53;67.13;101262.97;4763216;30;20075;-77
2022/09/10 02:18:58;;;;;;;20.23;9.85;;;;;;;3.53;67.08;101269.00;4773739;29;20086;-75
2022/09/10 02:21:25;;;;;;;21.73;10.13;;;;;;;3.52;67.28;101272.38;4759645;30;20566;-76
2022/09/10 02:23:56;;;;;;;20.85;9.45;;;;;;;3.50;67.10;101263.72;4763141;30;20047;-76
2022/09/10 02:26:24;;;;;;;19.67;9.88;;;;;;;3.43;67.20;101257.41;4758320;30;20492;-76
2022/09/10 02:28:51;;;;;;;19.15;9.48;;;;;;;3.45;67.03;101260.03;4743157;30;20180;-74
2022/09/10 02:31:17;;;;;;;18.70;9.43;;;;;;;3.43;67.43;101256.53;4757475;30;20051;-79
2022/09/10 02:33:44;;;;;;;25.50;10.60;;;;;;;3.48;67.12;101262.75;4758743;30;20066;-78
2022/09/10 02:36:11;;;;;;;18.45;9.43;;;;;;;3.42;67.19;101247.06;4762570;30;20055;-75
2022/09/10 02:38:37;;;;;;;20.65;10.05;;;;;;;3.50;67.16;101263.72;4758505;30;20052;-77
2022/09/10 02:41:04;;;;;;;17.05;9.80;;;;;;;3.43;67.48;101248.81;4765724;30;20051;-78
2022/09/10 02:43:31;;;;;;;16.67;9.65;;;;;;;3.43;67.49;101251.38;4762881;30;20051;-76
2022/09/10 02:46:01;;;;;;;23.20;11.27;;;;;;;3.47;67.46;101259.31;4758467;30;20059;-78
2022/09/10 02:48:27;;;;;;;23.63;11.18;;;;;;;3.45;67.71;101247.19;4757539;30;20048;-75
2022/09/10 02:50:56;;;;;;;20.85;10.43;;;;;;;3.51;67.63;101262.03;4756388;30;20043;-76
2022/09/10 02:53:25;;;;;;;24.63;10.13;;;;;;;3.47;67.74;101255.84;4741916;30;20104;-75
2022/09/10 02:55:54;;;;;;;16.60;9.70;;;;;;;3.50;67.58;101258.56;4757852;30;20145;-75
2022/09/10 02:58:20;;;;;;;22.33;11.00;;;;;;;3.51;67.46;101262.91;4749306;30;20046;-80
2022/09/10 03:00:46;;;;;;;23.75;11.07;;;;;;;3.50;67.85;101263.72;4766773;30;20127;-77
2022/09/10 03:03:12;;;;;;;26.42;11.00;;;;;;;3.44;67.84;101259.19;4748135;30;20059;-74
2022/09/10 03:05:38;;;;;;;23.20;10.73;;;;;;;3.45;67.18;101258.38;4763920;30;20134;-75
2022/09/10 03:08:05;;;;;;;25.10;12.07;;;;;;;3.45;67.47;101265.19;4763375;30;20047;-75
2022/09/10 03:10:35;;;;;;;24.13;12.68;;;;;;;3.48;67.36;101273.06;4772373;29;20516;-76
2022/09/10 03:13:01;;;;;;;19.05;10.25;;;;;;;3.45;67.56;101270.34;4772883;29;20137;-74
2022/09/10 03:15:27;;;;;;;17.23;10.13;;;;;;;3.45;67.48;101260.03;4778246;30;20054;-79
2022/09/10 03:17:53;;;;;;;21.13;10.82;;;;;;;3.49;67.96;101267.09;4761194;30;20400;-78
2022/09/10 03:20:21;;;;;;;18.80;10.95;;;;;;;3.54;67.98;101264.72;4745997;29;20083;-76
2022/09/10 03:22:52;;;;;;;19.10;10.18;;;;;;;3.47;67.96;101249.03;4757100;29;21178;-74
2022/09/10 03:25:18;;;;;;;26.63;10.88;;;;;;;3.61;67.90;101262.50;4776127;29;20062;-77
2022/09/10 03:27:45;;;;;;;23.02;10.35;;;;;;;3.61;67.78;101252.19;4760324;30;20047;-78
2022/09/10 03:30:23;;;;;;;22.20;10.35;;;;;;;3.75;67.31;101257.03;4772160;29;20153;-77
2022/09/10 03:32:53;;;;;;;22.08;10.93;;;;;;;3.94;67.72;101266.44;4756428;30;20046;-78
2022/09/10 03:35:21;;;;;;;21.13;10.32;;;;;;;4.04;67.91;101273.69;4743703;30;20059;-78
2022/09/10 03:37:47;;;;;;;29.23;12.88;;;;;;;4.12;67.67;101261.13;4772602;30;20043;-77
2022/09/10 03:40:15;;;;;;;23.67;10.52;;;;;;;4.26;68.08;101269.44;4761230;30;20108;-75
2022/09/10 03:42:42;;;;;;;22.35;10.32;;;;;;;4.37;67.76;101267.28;4746512;30;20046;-78
2022/09/10 03:45:10;;;;;;;22.52;10.10;;;;;;;4.48;67.42;101271.19;4748099;30;20064;-76
2022/09/10 03:47:42;;;;;;;18.45;10.70;;;;;;;4.60;68.14;101269.88;4774805;29;20097;-75
2022/09/10 03:50:08;;;;;;;18.98;10.80;;;;;;;4.73;67.45;101269.56;4760831;30;20055;-78
2022/09/10 03:52:35;;;;;;;20.60;10.02;;;;;;;4.83;67.12;101260.47;4773369;29;20082;-76
2022/09/10 03:55:02;;;;;;;18.08;9.98;;;;;;;4.99;67.27;101256.75;4757199;30;20082;-76
2022/09/10 03:57:30;;;;;;;16.23;9.60;;;;;;;5.08;67.25;101248.47;4744523;29;20055;-77
2022/09/10 03:59:59;;;;;;;20.63;10.00;;;;;;;5.25;66.93;101260.31;4770818;29;20562;-77
2022/09/10 04:02:25;;;;;;;22.45;9.65;;;;;;;5.40;67.41;101249.66;4757092;30;20439;-77
2022/09/10 04:04:51;;;;;;;20.15;9.90;;;;;;;5.63;66.97;101259.88;4760155;30;20497;-76
2022/09/10 04:07:17;;;;;;;20.65;10.38;;;;;;;5.62;66.64;101231.44;4771552;29;20064;-78
2022/09/10 04:09:43;;;;;;;21.15;10.38;;;;;;;6.00;66.41;101255.13;4772876;29;20083;-78
2022/09/10 04:12:09;;;;;;;19.70;10.20;;;;;;;6.28;66.20;101264.69;4742498;30;20516;-79
2022/09/10 04:14:35;;;;;;;16.23;9.25;;;;;;;6.53;66.12;101257.66;4775440;29;21002;-77
2022/09/10 04:17:02;;;;;;;20.15;9.73;;;;;;;6.64;65.96;101234.72;4776321;30;20051;-75
2022/09/10 04:19:29;;;;;;;18.60;10.05;;;;;;;7.01;65.22;101255.63;4771249;30;20063;-78
2022/09/10 04:21:56;;;;;;;20.30;10.55;;;;;;;7.25;64.95;101250.28;4776277;29;20153;-77
2022/09/10 04:24:24;;;;;;;22.27;10.25;;;;;;;7.42;64.67;101242.97;4768178;30;20047;-75
2022/09/10 04:26:51;;;;;;;23.38;10.18;;;;;;;7.78;64.40;101256.84;4756536;30;20040;-79
2022/09/10 04:29:17;;;;;;;19.55;10.45;;;;;;;8.04;63.96;101254.94;4759656;30;20047;-75
2022/09/10 04:31:45;;;;;;;18.42;9.90;;;;;;;8.30;63.80;101252.09;4772256;29;20082;-78
2022/09/10 04:34:13;;;;;;;18.67;9.93;;;;;;;8.50;63.45;101239.63;4756102;30;20051;-76
2022/09/10 04:36:39;;;;;;;16.15;9.85;;;;;;;8.75;62.92;101242.75;4757551;30;20184;-75
2022/09/10 04:39:07;;;;;;;22.88;9.93;;;;;;;9.10;62.88;101249.53;4757054;30;20051;-77
2022/09/10 04:41:33;;;;;;;16.48;9.00;;;;;;;9.45;62.62;101244.16;4745501;30;20413;-77
2022/09/10 04:43:59;;;;;;;16.85;9.57;;;;;;;9.87;62.07;101257.91;4756207;30;20055;-76
2022/09/10 04:46:26;;;;;;;22.95;10.88;;;;;;;10.28;61.67;101255.09;4761136;29;20135;-76
2022/09/10 04:48:53;;;;;;;34.05;16.85;;;;;;;10.78;61.26;101235.03;4741700;30;20084;-79
2022/09/10 04:51:22;;;;;;;22.15;11.93;;;;;;;11.21;60.15;101252.91;4776151;30;20460;-76
2022/09/10 04:53:51;;;;;;;19.50;9.73;;;;;;;11.39;59.81;101237.47;4758396;30;20048;-74
2022/09/10 04:56:19;;;;;;;16.63;9.90;;;;;;;11.97;59.24;101236.28;4761179;30;20139;-76
2022/09/10 04:58:45;;;;;;;20.73;10.40;;;;;;;13.27;59.22;101241.38;4771658;29;20051;-75
2022/09/10 05:01:14;;;;;;;21.30;9.57;;;;;;;15.36;57.28;101230.63;4742210;30;20044;-78
2022/09/10 05:03:42;;;;;;;21.90;9.85;;;;;;;17.20;54.59;101214.03;4772918;29;20067;-78
2022/09/10 05:06:10;;;;;;;17.63;9.60;;;;;;;18.71;51.09;101214.13;4745286;30;20048;-75
2022/09/10 05:08:36;;;;;;;25.15;10.40;;;;;;;20.20;47.80;101210.72;4771698;29;20048;-75
2022/09/10 05:11:03;;;;;;;16.92;8.98;;;;;;;21.63;44.82;101203.03;4774555;30;20097;-76
2022/09/10 05:13:30;;;;;;;17.73;9.45;;;;;;;23.03;42.11;101187.47;4775311;29;20059;-75
2022/09/10 05:16:00;;;;;;;15.30;9.15;;;;;;;24.27;38.77;101182.38;4759901;29;20040;-75
2022/09/10 05:18:26;;;;;;;19.08;8.63;;;;;;;25.44;36.46;101179.69;4743792;30;20101;-76
2022/09/10 05:20:53;;;;;;;18.63;9.35;;;;;;;26.50;33.83;101178.69;4772984;29;20039;-73
2022/09/10 05:23:19;;;;;;;15.38;8.85;;;;;;;27.39;31.97;101155.09;4740471;30;20544;-75
2022/09/10 05:25:47;;;;;;;18.50;8.70;;;;;;;28.40;30.20;101164.22;4735904;30;20047;-76
2022/09/10 05:28:15;;;;;;;15.38;8.35;;;;;;;29.19;28.83;101168.19;4744468;30;20051;-79
2022/09/10 05:30:44;;;;;;;16.17;8.85;;;;;;;29.87;26.95;101163.66;4740924;30;20442;-76
2022/09/10 05:33:11;;;;;;;17.40;9.45;;;;;;;30.54;25.56;101162.56;4763065;30;20673;-76
2022/09/10 05:35:37;;;;;;;12.13;9.05;;;;;;;31.16;24.85;101163.47;4773092;29;20151;-75
2022/09/10 05:38:30;;;;;;;15.77;8.75;;;;;;;31.67;23.80;101148.00;4762274;30;20494;-82
2022/09/10 05:40:56;;;;;;;18.65;9.40;;;;;;;32.48;22.64;101152.53;4770158;29;20052;-76
2022/09/10 05:43:22;;;;;;;14.05;9.02;;;;;;;32.98;21.43;101144.88;4745512;29;20066;-76
2022/09/10 05:45:50;;;;;;;15.70;9.45;;;;;;;33.84;20.26;101159.28;4740544;30;20044;-77
2022/09/10 05:48:17;;;;;;;14.38;8.68;;;;;;;34.53;19.20;101158.66;4755830;30;20054;-76
2022/09/10 05:50:47;;;;;;;17.08;9.40;;;;;;;35.11;18.10;101143.53;4740589;30;20043;-77
2022/09/10 05:53:13;;;;;;;20.17;9.90;;;;;;;35.70;17.77;101153.47;4740167;29;20063;-77
2022/09/10 05:55:38;;;;;;;25.00;10.32;;;;;;;36.14;16.73;101150.22;4758415;29;20043;-77
2022/09/10 05:58:06;;;;;;;17.45;10.50;;;;;;;36.60;16.21;101143.03;4733864;30;20076;-77
2022/09/10 06:00:35;;;;;;;17.65;7.10;;;;;;;37.25;15.46;101156.56;4761848;30;20127;-76
2022/09/10 06:03:03;;;;;;;11.05;5.82;;;;;;;37.61;15.06;101149.22;4775515;29;20063;-76
2022/09/10 06:05:53;;;;;;;12.50;5.13;;;;;;;38.15;14.40;101140.06;4778125;29;20047;-76
2022/09/10 06:08:24;;;;;;;11.38;5.63;;;;;;;38.63;13.54;101132.25;4773358;29;20252;-78
2022/09/10 06:11:04;;;;;;;7.72;5.50;;;;;;;38.96;13.10;101148.66;4756829;30;20047;-78
2022/09/10 06:13:41;;;;;;;10.13;5.32;;;;;;;39.49;13.01;101142.91;4784545;29;20039;-78
2022/09/10 06:16:07;;;;;;;10.18;5.00;;;;;;;39.78;12.26;101140.66;4790872;29;20051;-77
2022/09/10 06:18:34;;;;;;;6.38;5.63;;;;;;;40.16;11.91;101146.31;4793522;29;20050;-77
2022/09/10 06:21:07;;;;;;;13.13;11.57;;;;;;;40.48;11.77;101145.34;4744503;30;20059;-78
2022/09/10 06:23:35;;;;;;;7.25;4.30;;;;;;;40.88;11.53;101128.91;4773475;29;20039;-77
2022/09/10 06:26:03;;;;;;;8.40;4.47;;;;;;;41.46;10.93;101133.91;4787523;29;20070;-76
2022/09/10 06:28:31;;;;;;;6.75;3.80;;;;;;;41.51;11.00;101130.59;4758084;29;20051;-77
2022/09/10 06:30:58;;;;;;;6.40;3.88;;;;;;;41.69;10.87;101139.31;4767069;30;20040;-77
2022/09/10 06:33:24;;;;;;;6.65;4.43;;;;;;;42.11;10.03;101141.56;4759808;30;20047;-76
2022/09/10 06:35:58;;;;;;;13.20;5.80;;;;;;;42.22;10.04;101140.25;4770408;29;20098;-77
2022/09/10 06:38:27;;;;;;;9.13;4.93;;;;;;;42.69;10.17;101133.44;4758095;30;20393;-78
2022/09/10 06:40:55;;;;;;;6.70;4.50;;;;;;;43.02;9.62;101132.97;4772634;29;20054;-79
2022/09/10 06:43:22;;;;;;;5.63;4.07;;;;;;;43.39;9.33;101126.53;4780891;29;20046;-77
2022/09/10 06:46:22;;;;;;;5.78;4.25;;;;;;;43.81;8.76;101141.13;4775163;29;20051;-77
2022/09/10 06:49:01;;;;;;;4.50;3.70;;;;;;;43.97;8.70;101142.69;4786075;29;20044;-75
2022/09/10 06:51:32;;;;;;;3.90;2.63;;;;;;;44.17;8.66;101139.22;4769345;30;20075;-78
2022/09/10 06:54:01;;;;;;;4.32;2.72;;;;;;;44.45;8.49;101133.66;4758804;30;20043;-77
2022/09/10 06:56:28;;;;;;;3.70;2.78;;;;;;;43.83;8.36;101139.03;4743045;30;20114;-79
2022/09/10 06:58:56;;;;;;;5.10;3.10;;;;;;;43.60;8.39;101136.53;4754057;30;20079;-78
2022/09/10 07:01:24;;;;;;;3.83;3.10;;;;;;;43.41;8.46;101128.00;4736988;30;20044;-78
2022/09/10 07:03:59;;;;;;;5.25;3.20;;;;;;;43.02;8.37;101126.63;4771203;29;20055;-77
2022/09/10 07:06:34;;;;;;;7.10;3.40;;;;;;;42.24;8.88;101128.09;4770141;29;20500;-76
2022/09/10 07:09:19;;;;;;;3.92;2.53;;;;;;;42.81;8.57;101124.75;4767570;30;20105;-79
2022/09/10 07:11:53;;;;;;;4.25;2.55;;;;;;;43.63;8.27;101122.47;4784235;29;20055;-76
2022/09/10 07:14:25;;;;;;;4.57;2.97;;;;;;;44.22;8.01;101123.03;4767532;30;20047;-77
2022/09/10 07:16:56;;;;;;;5.35;3.00;;;;;;;44.89;7.64;101114.97;4741972;29;20074;-77
2022/09/10 07:19:24;;;;;;;3.70;2.73;;;;;;;45.54;7.20;101114.31;4766729;30;20133;-77
2022/09/10 07:21:50;;;;;;;3.90;3.10;;;;;;;46.05;7.32;101120.06;4784113;29;20100;-78
2022/09/10 07:24:41;;;;;;;3.63;3.25;;;;;;;46.30;6.99;101119.31;4778736;29;20045;-79
2022/09/10 07:27:13;;;;;;;5.00;3.35;;;;;;;46.74;6.74;101123.06;4754441;29;20050;-78
2022/09/10 07:29:42;;;;;;;4.90;2.83;;;;;;;46.99;6.73;101111.25;4757527;30;20062;-78
2022/09/10 07:32:12;;;;;;;2.55;2.35;;;;;;;47.21;6.65;101119.13;4774960;29;20047;-77
2022/09/10 07:34:38;;;;;;;4.13;2.65;;;;;;;47.30;6.25;101122.44;4759176;30;20052;-77
2022/09/10 07:37:21;;;;;;;4.63;3.03;;;;;;;46.93;6.09;101112.16;4758588;30;20062;-78
2022/09/10 07:39:50;;;;;;;3.67;2.97;;;;;;;46.15;6.63;101123.22;4757856;30;20113;-79
2022/09/10 07:42:16;;;;;;;4.68;3.33;;;;;;;43.89;7.55;101109.97;4774132;30;20051;-76
2022/09/10 07:44:45;;;;;;;5.10;3.30;;;;;;;42.73;8.09;101101.06;4752668;30;20437;-83
2022/09/10 07:47:11;;;;;;;3.30;2.80;;;;;;;43.72;7.66;101104.84;4757447;30;20329;-80
2022/09/10 07:49:42;;;;;;;4.50;2.80;;;;;;;44.50;7.17;101098.22;4746403;29;20051;-79
2022/09/10 07:52:10;;;;;;;3.40;2.53;;;;;;;44.15;7.04;101101.03;4756716;29;20048;-79
2022/09/10 07:54:44;;;;;;;4.05;2.70;;;;;;;43.42;7.57;101105.06;4756337;29;20332;-77
2022/09/10 07:57:11;;;;;;;4.80;2.55;;;;;;;44.32;7.44;101103.44;4756170;30;20043;-78
2022/09/10 07:59:37;;;;;;;3.75;2.60;;;;;;;45.28;7.27;101093.22;4761562;30;20047;-77
2022/09/10 08:02:08;;;;;;;4.47;2.67;;;;;;;45.87;6.76;101094.13;4771976;29;20066;-77
2022/09/10 08:04:36;;;;;;;7.07;2.70;;;;;;;45.46;6.79;101102.69;4758789;29;20415;-81
2022/09/10 08:07:03;;;;;;;3.75;2.50;;;;;;;45.57;6.64;101091.03;4733443;29;20092;-76
2022/09/10 08:09:29;;;;;;;3.58;2.42;;;;;;;46.22;6.55;101098.44;4774288;30;20047;-79
2022/09/10 08:11:55;;;;;;;3.40;2.42;;;;;;;45.56;6.33;101087.47;4758486;30;20061;-78
2022/09/10 08:14:26;;;;;;;3.35;2.38;;;;;;;45.76;6.75;101089.31;4747682;29;20103;-76
2022/09/10 08:16:54;;;;;;;4.13;2.58;;;;;;;46.46;6.27;101090.47;4761804;30;20099;-77
2022/09/10 08:19:21;;;;;;;2.97;2.67;;;;;;;47.16;5.85;101086.75;4757914;30;20047;-78
2022/09/10 08:21:50;;;;;;;3.33;2.72;;;;;;;47.62;5.61;101081.84;4758608;30;20134;-79
2022/09/10 08:24:22;;;;;;;3.25;2.45;;;;;;;47.91;5.89;101079.38;4774555;29;20054;-79
2022/09/10 08:26:52;;;;;;;5.28;2.63;;;;;;;48.08;5.29;101073.22;4742308;29;20051;-77
2022/09/10 08:29:22;;;;;;;3.00;2.72;;;;;;;48.20;5.32;101068.59;4762651;29;20562;-81
2022/09/10 08:31:50;;;;;;;3.60;2.63;;;;;;;48.17;5.07;101060.81;4759729;29;20051;-79
2022/09/10 08:34:21;;;;;;;4.57;2.58;;;;;;;47.82;5.68;101066.97;4756982;30;20051;-78
2022/09/10 08:36:54;;;;;;;6.28;3.17;;;;;;;47.72;5.59;101064.75;4774125;29;20136;-79
2022/09/10 08:39:22;;;;;;;3.83;2.70;;;;;;;47.49;5.39;101065.47;4732830;30;20074;-77
2022/09/10 08:42:00;;;;;;;4.72;2.63;;;;;;;47.81;5.46;101068.03;4777327;29;20127;-76
2022/09/10 08:44:42;;;;;;;3.72;2.97;;;;;;;47.87;5.18;101064.38;4773644;30;20543;-76
2022/09/10 08:47:32;;;;;;;3.20;2.90;;;;;;;48.36;5.17;101055.25;4743490;29;20115;-76
2022/09/10 08:50:19;;;;;;;3.35;2.80;;;;;;;48.73;4.90;101055.06;4742905;30;20161;-76
2022/09/10 08:52:55;;;;;;;5.97;2.70;;;;;;;47.32;5.66;101054.19;4774441;29;20048;-76
2022/09/10 08:55:30;;;;;;;5.13;2.97;;;;;;;47.50;5.62;101050.59;4742977;30;20075;-76
2022/09/10 08:58:11;;;;;;;4.00;2.85;;;;;;;47.87;5.51;101055.25;4756276;30;20051;-77
2022/09/10 09:00:44;;;;;;;3.40;3.10;;;;;;;47.09;5.50;101033.66;4772745;30;20167;-75
2022/09/10 09:03:32;;;;;;;3.92;2.75;;;;;;;45.87;5.52;101052.06;4746288;29;20150;-79
2022/09/10 09:06:06;;;;;;;3.28;2.78;;;;;;;45.84;6.37;101042.34;4742715;29;20090;-77
2022/09/10 09:08:48;;;;;;;5.72;3.10;;;;;;;46.36;5.92;101044.19;4759945;30;20068;-79
2022/09/10 09:12:13;;;;;;;3.17;2.78;;;;;;;46.62;5.66;101034.91;4760980;30;20764;-79
2022/09/10 09:14:51;;;;;;;3.30;3.00;;;;;;;46.50;5.75;101035.84;4717255;30;20115;-76
2022/09/10 09:17:32;;;;;;;7.00;3.35;;;;;;;46.45;5.84;101037.41;4769385;29;20063;-78
2022/09/10 09:20:14;;;;;;;5.47;3.30;;;;;;;46.32;5.63;101023.69;4742908;30;20154;-80
2022/09/10 09:23:09;;;;;;;4.50;2.75;;;;;;;46.41;5.84;101027.00;4728591;30;20054;-77
2022/09/10 09:25:49;;;;;;;4.55;2.90;;;;;;;46.04;6.02;101029.59;4741585;30;20086;-76
2022/09/10 09:28:47;;;;;;;7.28;2.97;;;;;;;45.83;5.88;101026.91;4730746;30;20102;-78
2022/09/10 09:31:43;;;;;;;5.72;2.97;;;;;;;45.67;5.90;101038.41;4725483;30;20528;-77
2022/09/10 09:34:27;;;;;;;6.18;3.08;;;;;;;45.73;6.25;101018.31;4774136;29;20111;-79
2022/09/10 09:36:57;;;;;;;3.78;3.38;;;;;;;45.99;6.15;101019.25;4748001;30;20043;-77
2022/09/10 09:39:41;;;;;;;11.85;3.35;;;;;;;46.62;5.84;101012.91;4744035;30;20051;-79
2022/09/10 09:42:39;;;;;;;7.55;2.97;;;;;;;46.92;5.71;101012.22;4768338;30;20048;-81
2022/09/10 09:45:13;;;;;;;4.22;2.90;;;;;;;46.30;5.97;100999.19;4772086;30;20054;-78
2022/09/10 09:47:40;;;;;;;5.82;2.78;;;;;;;45.46;5.91;101001.09;4758896;30;20114;-78
2022/09/10 09:50:10;;;;;;;5.43;3.15;;;;;;;44.30;6.68;100990.38;4762922;30;20108;-77
2022/09/10 09:52:39;;;;;;;5.90;2.85;;;;;;;43.55;6.68;101007.59;4785037;29;20044;-77
2022/09/10 09:55:19;;;;;;;8.07;2.83;;;;;;;42.70;7.14;100997.53;4754613;29;20519;-76
2022/09/10 09:57:46;;;;;;;8.57;3.20;;;;;;;43.44;6.98;100990.69;4776762;29;20106;-78
2022/09/10 10:00:35;;;;;;;8.73;3.05;;;;;;;44.20;6.38;100986.13;4744191;30;20052;-76
2022/09/10 10:03:11;;;;;;;5.25;3.00;;;;;;;44.79;6.65;100993.78;4761009;29;20124;-79
2022/09/10 10:05:38;;;;;;;5.07;3.05;;;;;;;43.59;6.75;100984.22;4770566;30;20055;-77
2022/09/10 10:08:04;;;;;;;4.82;3.10;;;;;;;43.31;7.22;100979.69;4793027;29;20507;-79
2022/09/10 10:10:30;;;;;;;5.53;3.42;;;;;;;43.54;6.72;100984.00;4772105;30;20085;-79
2022/09/10 10:12:56;;;;;;;6.55;3.78;;;;;;;42.24;7.01;100983.22;4758714;30;20508;-80
2022/09/10 10:15:41;;;;;;;6.05;4.00;;;;;;;39.05;8.60;100982.75;4787868;29;20058;-79
2022/09/10 10:18:27;;;;;;;8.07;3.92;;;;;;;37.63;8.70;100983.50;4777345;30;20058;-77
2022/09/10 10:21:16;;;;;;;3.90;3.60;;;;;;;36.35;9.52;100982.03;4759528;30;20054;-80
2022/09/10 10:23:42;;;;;;;10.13;4.70;;;;;;;35.76;10.09;100978.81;4777294;29;20131;-79
2022/09/10 10:26:19;;;;;;;4.10;3.40;;;;;;;35.35;10.36;100968.28;4774141;30;20051;-76
2022/09/10 10:29:02;;;;;;;6.07;3.35;;;;;;;34.89;10.98;100982.44;4758622;29;20066;-76
2022/09/10 10:31:49;;;;;;;5.82;3.22;;;;;;;34.34;11.26;100964.97;4774864;30;20143;-77
2022/09/10 10:34:36;;;;;;;13.13;3.90;;;;;;;33.84;11.47;100971.25;4759622;30;20043;-76
2022/09/10 10:37:39;;;;;;;5.80;3.55;;;;;;;33.77;11.66;100973.63;4793432;29;20159;-77
2022/09/10 10:40:29;;;;;;;4.65;3.63;;;;;;;33.21;11.67;100980.31;4778807;29;20116;-78
2022/09/10 10:43:32;;;;;;;8.73;3.95;;;;;;;31.18;12.89;100969.84;4774802;29;20111;-79
2022/09/10 10:46:19;;;;;;;4.43;3.72;;;;;;;29.89;13.98;100968.59;4786852;29;20058;-79
2022/09/10 10:49:18;;;;;;;5.93;4.13;;;;;;;28.94;14.85;100985.84;4781997;29;20072;-77
2022/09/10 10:52:12;;;;;;;7.55;4.75;;;;;;;27.92;15.70;100966.53;4746723;30;20055;-79
2022/09/10 10:54:53;;;;;;;7.82;4.18;;;;;;;27.18;16.00;100957.75;4778282;29;20588;-76
2022/09/10 10:57:19;;;;;;;4.97;3.83;;;;;;;26.48;16.83;100969.81;4753299;30;20142;-79
2022/09/10 10:59:58;;;;;;;6.63;4.00;;;;;;;25.79;17.32;100967.34;4745230;30;20774;-78
2022/09/10 11:02:49;;;;;;;6.53;3.72;;;;;;;25.46;18.05;100962.03;4753994;30;20060;-78
2022/09/10 11:05:22;;;;;;;10.82;7.30;;;;;;;24.95;18.46;100950.38;4751185;29;20500;-80
2022/09/10 11:07:49;;;;;;;10.02;5.82;;;;;;;24.42;18.63;100960.09;4772496;29;20047;-77
2022/09/10 11:10:30;;;;;;;7.32;4.35;;;;;;;23.90;19.56;100956.28;4762441;29;20086;-80
2022/09/10 11:13:02;;;;;;;5.82;3.95;;;;;;;23.63;20.17;100955.75;4771779;29;20130;-79
2022/09/10 11:15:51;;;;;;;6.43;4.40;;;;;;;23.28;20.30;100943.13;4773679;29;20138;-79
2022/09/10 11:18:23;;;;;;;7.68;4.32;;;;;;;23.22;20.49;100953.16;4756812;29;20450;-77
2022/09/10 11:21:13;;;;;;;5.80;4.68;;;;;;;22.91;20.75;100954.44;4777090;30;20398;-76
2022/09/10 11:24:04;;;;;;;9.38;6.70;;;;;;;22.27;20.48;100941.94;4741392;30;20130;-76
2022/09/10 11:26:35;;;;;;;7.88;4.50;;;;;;;21.76;21.47;100957.16;4747692;30;20059;-76
2022/09/10 11:29:24;;;;;;;9.13;4.68;;;;;;;21.48;22.42;100950.19;4770492;29;20112;-76
2022/09/10 11:32:05;;;;;;;7.85;4.90;;;;;;;21.32;22.00;100952.50;4779509;29;20163;-78
2022/09/10 11:34:46;;;;;;;5.32;4.20;;;;;;;21.18;22.95;100938.91;4777343;29;20061;-81
2022/09/10 11:37:18;;;;;;;7.85;4.30;;;;;;;20.99;23.05;100936.03;4737280;30;20059;-75
2022/09/10 11:39:48;;;;;;;8.88;4.40;;;;;;;20.90;23.64;100946.03;4766526;30;20044;-77
2022/09/10 11:42:29;;;;;;;7.72;4.78;;;;;;;20.79;23.61;100934.94;4772130;30;20050;-75
2022/09/10 11:45:05;;;;;;;7.20;4.97;;;;;;;20.62;23.85;100940.78;4762545;30;20055;-76
2022/09/10 11:47:48;;;;;;;7.18;4.88;;;;;;;20.34;23.78;100939.00;4773018;29;20056;-78
2022/09/10 11:50:31;;;;;;;9.35;5.10;;;;;;;20.07;24.47;100940.75;4775699;30;20520;-77
2022/09/10 11:52:59;;;;;;;6.07;4.70;;;;;;;20.01;24.59;100940.00;4755318;30;20575;-77